Dallas Love Field
KDAL : now visible

Aeroporto :











RITROVATECI SU...

 
LOGIN :

Iscrizione | Disclaimer

   EN    FR    IT 

 









Sommario :    VFR   VFR Marginale   IFR   IFR Intensivo   IFR Molto Intensivo
Visibilità : 
Base nubi : 
>= 8 km
>= 3000ft
5 / 8 km
1000 / 3000 ft
1500m / 5 km
500 / 1000 ft
800 / 1500m
200 / 500 ft
< 800m
< 200 ft
Simboli :   Temporali  Nebbia  Neve Forte  Precipitazioni Forti  Vento > 20 kt






- Altitudine del aeroporto : 487 ft
- Codice IATA : DAL


KDAL - Dallas Love Field

ULTIMO METAR :
  • 180453Z 16016G30KT 10SM SCT025 SCT032 28/23 A2984 RMK AO2 PK WND 17030/0450 SLP097 T02830228

METARs OBSOLETI :
  • 180353Z 15015G22KT 10SM FEW055 29/23 A2983 RMK AO2 PK WND 14026/0258 SLP095 TCU DSNT N T02890233
  • 180253Z 14010G19KT 10SM SCT044TCU SCT060 30/22 A2981 RMK AO2 PK WND 16027/0208 SLP086 TCU SE-S AND DSNT N-NE T03000222 53020
  • 180153Z 15015G24KT 10SM SCT050TCU SCT065 31/22 A2978 RMK AO2 PK WND 14034/0120 SLP077 TCU NW-NE-SE AND DSNT W-NW T03110222
  • 180053Z 14017G26KT 10SM FEW060TCU FEW080 32/22 A2977 RMK AO2 PK WND 13027/0001 SLP072 TCU SE-SW AND DSNT W-NW T03220222

TAF KDAL
Valido dal 18 a 03 ore il 19 a 00 ore UTC


180257Z 1803/1824 16015G25KT P6SM SCT040
FM180600 16014KT P6SM BKN015
FM181700 15016KT P6SM SCT025 BKN035
FIR KZFW / America del Nord



MetMap, La meteo Aeronautica in un colpo d'occhio ! - Copyright ORBIFLY Dicembre 2007 - Disclaimer

ORBIFLY MET'MAP TEAM :

Programmazione e sviluppo : Alexandra Zaïnal
Concezione : Baudouin d'Aumeries
Supporto tecnico e logistico : Manuel Goepfert
Aiuto : Marc-Olivier Méhu
Aiuto per la traduzione : Arnaldo La Scala




FONTI E CREDITI :

   NOAA       Earth
Advisory